Terminal Aerodrome Forecast
Issued by NWS

Home | Current Version | Previous Version | Text Only | Print | Product List | Glossary On
Versions: 1 2 3 4 5 6 7 8 9 10 11 12 13 14 15 16 17 18 19
000
FTAK31 PAFA 271726
TAFATA
TAF
PATA 271726Z 2718/2818 32005KT P6SM BKN040 OVC120
     FM272200 VRB04KT P6SM SCT040 SCT120
     FM280300 VRB03KT P6SM SKC=

USA.gov is the U.S. government's official web portal to all federal, state and local government web resources and services.